DTR152 EBBR-EKCH
Flight info
| Callsign | DTR152 |
|---|---|
| Flight time | N/A |
| Altitude | 22000 |
| Route | NIK L191 VICOT N873 SPY/N0252F210 DCT DOSUR/N0252F230 P729 TUDLO |
| Aircraft | DH8A/M-SDFGR/S |
Departure
| Time | 2026-04-30 15:01 |
|---|---|
| Airport | Brussels Airport (EBBR) |
Arrival
| Time | N/A |
|---|---|
| Airport | Copenhagen Kastrup Airport (EKCH) |
| Time | Latitude | Longitude | Altitude | Speed | Heading |
|---|---|---|---|---|---|
| 2026-04-30 14:34 | 50.90050 | 4.49036 | 145 ft | 0 kts | 335° |
| 2026-04-30 14:55 | 50.89964 | 4.49092 | 149 ft | 0 kts | 69° |
| 2026-04-30 14:56 | 50.89966 | 4.49119 | 149 ft | 4 kts | 86° |
| 2026-04-30 14:57 | 50.89965 | 4.49199 | 150 ft | 8 kts | 107° |
| 2026-04-30 14:57 | 50.89785 | 4.49205 | 156 ft | 22 kts | 190° |
| 2026-04-30 14:58 | 50.89492 | 4.49036 | 157 ft | 18 kts | 189° |
| 2026-04-30 14:58 | 50.89375 | 4.49046 | 160 ft | 17 kts | 141° |
| 2026-04-30 14:58 | 50.89314 | 4.49085 | 161 ft | 0 kts | 194° |
| 2026-04-30 15:00 | 50.89160 | 4.49135 | 165 ft | 14 kts | 74° |
| 2026-04-30 15:00 | 50.89565 | 4.50923 | 205 ft | 155 kts | 73° |
| 2026-04-30 15:01 | 50.91019 | 4.54647 | 897 ft | 228 kts | 58° |
| 2026-04-30 15:01 | 50.91789 | 4.56881 | 1434 ft | 244 kts | 79° |
| 2026-04-30 15:01 | 50.92236 | 4.62579 | 2466 ft | 274 kts | 70° |
| 2026-04-30 15:02 | 50.93276 | 4.65135 | 2930 ft | 279 kts | 51° |
| 2026-04-30 15:02 | 50.94856 | 4.66944 | 3352 ft | 292 kts | 31° |
| 2026-04-30 15:03 | 51.00958 | 4.66309 | 4510 ft | 309 kts | 330° |
| 2026-04-30 15:03 | 51.03561 | 4.61109 | 5216 ft | 299 kts | 288° |
| 2026-04-30 15:04 | 51.03709 | 4.54821 | 5904 ft | 282 kts | 260° |
| 2026-04-30 15:04 | 51.04362 | 4.46027 | 7071 ft | 277 kts | 317° |
| 2026-04-30 15:05 | 51.08070 | 4.39007 | 8119 ft | 293 kts | 294° |
| 2026-04-30 15:06 | 51.10300 | 4.33523 | 8966 ft | 299 kts | 310° |
| 2026-04-30 15:06 | 51.12629 | 4.28014 | 9800 ft | 303 kts | 302° |
| 2026-04-30 15:07 | 51.14916 | 4.22319 | 10604 ft | 306 kts | 305° |
| 2026-04-30 15:07 | 51.17486 | 4.16970 | 11407 ft | 301 kts | 327° |
| 2026-04-30 15:08 | 51.20979 | 4.13436 | 12174 ft | 300 kts | 327° |
| 2026-04-30 15:08 | 51.25920 | 4.07348 | 13338 ft | 297 kts | 328° |
| 2026-04-30 15:09 | 51.29624 | 4.05114 | 13972 ft | 288 kts | 9° |
| 2026-04-30 15:09 | 51.33718 | 4.05650 | 13997 ft | 309 kts | 3° |
| 2026-04-30 15:10 | 51.38133 | 4.05326 | 14024 ft | 321 kts | 9° |
| 2026-04-30 15:11 | 51.44749 | 4.13770 | 14512 ft | 312 kts | 37° |
| 2026-04-30 15:11 | 51.48120 | 4.17733 | 15167 ft | 294 kts | 49° |
| 2026-04-30 15:12 | 51.52713 | 4.24014 | 16041 ft | 284 kts | 45° |
| 2026-04-30 15:13 | 51.55774 | 4.28052 | 16612 ft | 287 kts | 45° |
| 2026-04-30 15:14 | 51.62046 | 4.36470 | 17712 ft | 300 kts | 45° |
| 2026-04-30 15:14 | 51.66887 | 4.42986 | 18553 ft | 303 kts | 45° |
| 2026-04-30 15:16 | 51.74965 | 4.53904 | 19805 ft | 303 kts | 45° |
| 2026-04-30 15:17 | 51.81384 | 4.62602 | 20810 ft | 298 kts | 45° |
| 2026-04-30 15:18 | 51.89207 | 4.73269 | 22036 ft | 291 kts | 45° |
| 2026-04-30 15:19 | 51.93913 | 4.79701 | 22276 ft | 306 kts | 45° |